Hovedside
METAR-TAF:

METAR-TAF

Lufthavner :

Bodø, Norge

Bodø lufthavn

breddegrad: 67-16N, lengdegrad: 014-22E, høyde over havet: 1 m

Gjeldene værobservasjon

Denne rapporten ble laget for 1 time og 5 minutter siden, klokken 09:50 UTC
Vind 9 kt fra Nord
Temperatur 5°C
Luftfuktighet 52%
Trykk 1011 hPa
Sikt 10 km eller mer
Få skyer i en høyde av 2500 ft

METAR: ENBO 270950Z 01009KT 9999 FEW025 05/M04 Q1011 NOSIG

Tid: 12:55 (10:55 UTC)

Varsel

Varsel gyldig fra 27. klokken 06 UTC til 28. klokken 06 UTC
Vind 5 kt fra skiftende retning
Sikt 10 km eller mer
Få skyer i en høyde av 2000 ft, Tårnskyer (cumulus).
Blir
fra 27. klokken 08 UTC til 27. klokken 10 UTC
Vind 10 kt fra Nord-nordøst
Blir
fra 27. klokken 18 UTC til 27. klokken 20 UTC
Vind 8 kt fra Øst

TAF: ENBO 2706/2806 VRB05KT 9999 FEW020TCU BECMG 2708/2710 02010KT BECMG 2718/2720 09008KT

Værobservasjoner og værvarsel for over 4000 flyplasser (METAR- og TAF-rapporter).

Tilgjengelige stasjoner er representert av de røde og gule prikkene på kartet.

Hold musepekeren over prikken for å se navnet på stasjonen.

Klikk så for å se værobservasjoner og -varsler.

For å forandre kartet kan du klikke på den grønne knappen med svart kryss for å zoome inn, på den grønne knappen med strek for å zoome ut, eller på de grønne pilene for å se tilstøtende kart.


METAR-TAF: